sensor_id;sensor_type;location;lat;lon;timestamp;temperature;humidity
16964;DHT22;8598;50.508;10.436;2023-08-07T00:01:03;13.50;99.90
16964;DHT22;8598;50.508;10.436;2023-08-07T00:03:30;13.50;99.90
16964;DHT22;8598;50.508;10.436;2023-08-07T00:05:58;13.50;99.90
16964;DHT22;8598;50.508;10.436;2023-08-07T00:08:24;13.40;99.90
16964;DHT22;8598;50.508;10.436;2023-08-07T00:10:51;13.50;99.90
16964;DHT22;8598;50.508;10.436;2023-08-07T00:13:18;13.40;99.90
16964;DHT22;8598;50.508;10.436;2023-08-07T00:15:44;13.40;99.90
16964;DHT22;8598;50.508;10.436;2023-08-07T00:18:11;13.40;99.90
16964;DHT22;8598;50.508;10.436;2023-08-07T00:20:38;13.40;99.90
16964;DHT22;8598;50.508;10.436;2023-08-07T00:23:06;13.40;99.90
16964;DHT22;8598;50.508;10.436;2023-08-07T00:25:32;13.50;99.90
16964;DHT22;8598;50.508;10.436;2023-08-07T00:27:59;13.50;99.90
16964;DHT22;8598;50.508;10.436;2023-08-07T00:30:26;13.40;99.90
16964;DHT22;8598;50.508;10.436;2023-08-07T00:32:52;13.50;99.90
16964;DHT22;8598;50.508;10.436;2023-08-07T00:35:19;13.40;99.90
16964;DHT22;8598;50.508;10.436;2023-08-07T00:37:45;13.40;99.90
16964;DHT22;8598;50.508;10.436;2023-08-07T00:40:14;13.30;99.90
16964;DHT22;8598;50.508;10.436;2023-08-07T00:42:40;13.30;99.90
16964;DHT22;8598;50.508;10.436;2023-08-07T00:45:08;13.30;99.90
16964;DHT22;8598;50.508;10.436;2023-08-07T00:47:35;13.20;99.90
16964;DHT22;8598;50.508;10.436;2023-08-07T00:50:04;13.20;99.90
16964;DHT22;8598;50.508;10.436;2023-08-07T00:52:32;13.20;99.90
16964;DHT22;8598;50.508;10.436;2023-08-07T00:54:59;13.10;99.90
16964;DHT22;8598;50.508;10.436;2023-08-07T00:57:27;13.10;99.90
16964;DHT22;8598;50.508;10.436;2023-08-07T00:59:54;13.10;99.90
16964;DHT22;8598;50.508;10.436;2023-08-07T01:02:21;13.10;99.90
16964;DHT22;8598;50.508;10.436;2023-08-07T01:04:47;13.00;99.90
16964;DHT22;8598;50.508;10.436;2023-08-07T01:07:14;13.00;99.90
16964;DHT22;8598;50.508;10.436;2023-08-07T01:09:41;13.00;99.90
16964;DHT22;8598;50.508;10.436;2023-08-07T01:12:13;13.00;99.90
16964;DHT22;8598;50.508;10.436;2023-08-07T01:14:49;13.00;99.90
16964;DHT22;8598;50.508;10.436;2023-08-07T01:17:17;13.00;99.90
16964;DHT22;8598;50.508;10.436;2023-08-07T01:19:47;12.90;99.90
16964;DHT22;8598;50.508;10.436;2023-08-07T01:22:17;13.00;99.90
16964;DHT22;8598;50.508;10.436;2023-08-07T01:24:45;12.90;99.90
16964;DHT22;8598;50.508;10.436;2023-08-07T01:27:23;13.00;99.90
16964;DHT22;8598;50.508;10.436;2023-08-07T01:29:56;12.90;99.90
16964;DHT22;8598;50.508;10.436;2023-08-07T01:32:27;12.90;99.90
16964;DHT22;8598;50.508;10.436;2023-08-07T01:34:54;12.90;99.90
16964;DHT22;8598;50.508;10.436;2023-08-07T01:37:23;12.90;99.90
16964;DHT22;8598;50.508;10.436;2023-08-07T01:39:53;12.90;99.90
16964;DHT22;8598;50.508;10.436;2023-08-07T01:42:20;12.90;99.90
16964;DHT22;8598;50.508;10.436;2023-08-07T01:44:47;12.80;99.90
16964;DHT22;8598;50.508;10.436;2023-08-07T01:47:14;12.80;99.90
16964;DHT22;8598;50.508;10.436;2023-08-07T01:49:41;12.80;99.90
16964;DHT22;8598;50.508;10.436;2023-08-07T01:52:08;12.80;99.90
16964;DHT22;8598;50.508;10.436;2023-08-07T01:54:38;12.80;99.90
16964;DHT22;8598;50.508;10.436;2023-08-07T01:57:05;12.80;99.90
16964;DHT22;8598;50.508;10.436;2023-08-07T01:59:32;12.80;99.90
16964;DHT22;8598;50.508;10.436;2023-08-07T02:01:58;12.80;99.90
16964;DHT22;8598;50.508;10.436;2023-08-07T02:04:25;12.80;99.90
16964;DHT22;8598;50.508;10.436;2023-08-07T02:06:51;12.80;99.90
16964;DHT22;8598;50.508;10.436;2023-08-07T02:09:18;12.80;99.90
16964;DHT22;8598;50.508;10.436;2023-08-07T02:11:47;12.70;99.90
16964;DHT22;8598;50.508;10.436;2023-08-07T02:14:14;12.70;99.90
16964;DHT22;8598;50.508;10.436;2023-08-07T02:16:40;12.70;99.90
16964;DHT22;8598;50.508;10.436;2023-08-07T02:19:07;12.80;99.90
16964;DHT22;8598;50.508;10.436;2023-08-07T02:21:34;12.70;99.90
16964;DHT22;8598;50.508;10.436;2023-08-07T02:24:00;12.80;99.90
16964;DHT22;8598;50.508;10.436;2023-08-07T02:26:27;12.80;99.90
16964;DHT22;8598;50.508;10.436;2023-08-07T02:28:55;12.70;99.90
16964;DHT22;8598;50.508;10.436;2023-08-07T02:31:22;12.70;99.90
16964;DHT22;8598;50.508;10.436;2023-08-07T02:33:48;12.70;99.90
16964;DHT22;8598;50.508;10.436;2023-08-07T02:36:15;12.70;99.90
16964;DHT22;8598;50.508;10.436;2023-08-07T02:38:42;12.70;99.90
16964;DHT22;8598;50.508;10.436;2023-08-07T02:41:08;12.70;99.90
16964;DHT22;8598;50.508;10.436;2023-08-07T02:43:35;12.60;99.90
16964;DHT22;8598;50.508;10.436;2023-08-07T02:46:03;12.60;99.90
16964;DHT22;8598;50.508;10.436;2023-08-07T02:48:30;12.60;99.90
16964;DHT22;8598;50.508;10.436;2023-08-07T02:50:57;12.60;99.90
16964;DHT22;8598;50.508;10.436;2023-08-07T02:53:23;12.70;99.90
16964;DHT22;8598;50.508;10.436;2023-08-07T02:55:50;12.60;99.90
16964;DHT22;8598;50.508;10.436;2023-08-07T02:58:17;12.60;99.90
16964;DHT22;8598;50.508;10.436;2023-08-07T03:00:43;12.60;99.90
16964;DHT22;8598;50.508;10.436;2023-08-07T03:03:11;12.50;99.90
16964;DHT22;8598;50.508;10.436;2023-08-07T03:05:38;12.50;99.90
16964;DHT22;8598;50.508;10.436;2023-08-07T03:08:05;12.50;99.90
16964;DHT22;8598;50.508;10.436;2023-08-07T03:10:31;12.40;99.90
16964;DHT22;8598;50.508;10.436;2023-08-07T03:12:58;12.50;99.90
16964;DHT22;8598;50.508;10.436;2023-08-07T03:15:25;12.50;99.90
16964;DHT22;8598;50.508;10.436;2023-08-07T03:17:51;12.50;99.90
16964;DHT22;8598;50.508;10.436;2023-08-07T03:20:19;12.60;99.90
16964;DHT22;8598;50.508;10.436;2023-08-07T03:22:46;12.50;99.90
16964;DHT22;8598;50.508;10.436;2023-08-07T03:25:13;12.60;99.90
16964;DHT22;8598;50.508;10.436;2023-08-07T03:27:39;12.60;99.90
16964;DHT22;8598;50.508;10.436;2023-08-07T03:30:07;12.50;99.90
16964;DHT22;8598;50.508;10.436;2023-08-07T03:32:33;12.60;99.90
16964;DHT22;8598;50.508;10.436;2023-08-07T03:35:00;12.50;99.90
16964;DHT22;8598;50.508;10.436;2023-08-07T03:37:28;12.50;99.90
16964;DHT22;8598;50.508;10.436;2023-08-07T03:39:55;12.50;99.90
16964;DHT22;8598;50.508;10.436;2023-08-07T03:42:22;12.50;99.90
16964;DHT22;8598;50.508;10.436;2023-08-07T03:44:48;12.40;99.90
16964;DHT22;8598;50.508;10.436;2023-08-07T03:47:15;12.50;99.90
16964;DHT22;8598;50.508;10.436;2023-08-07T03:49:42;12.40;99.90
16964;DHT22;8598;50.508;10.436;2023-08-07T03:52:08;12.40;99.90
16964;DHT22;8598;50.508;10.436;2023-08-07T03:54:36;12.40;99.90
16964;DHT22;8598;50.508;10.436;2023-08-07T03:57:04;12.30;99.90
16964;DHT22;8598;50.508;10.436;2023-08-07T03:59:30;12.30;99.90
16964;DHT22;8598;50.508;10.436;2023-08-07T04:01:57;12.30;99.90
16964;DHT22;8598;50.508;10.436;2023-08-07T04:04:24;12.40;99.90
16964;DHT22;8598;50.508;10.436;2023-08-07T04:06:50;12.30;99.90
16964;DHT22;8598;50.508;10.436;2023-08-07T04:09:17;12.40;99.90
16964;DHT22;8598;50.508;10.436;2023-08-07T04:11:45;12.30;99.90
16964;DHT22;8598;50.508;10.436;2023-08-07T04:14:12;12.40;99.90
16964;DHT22;8598;50.508;10.436;2023-08-07T04:16:38;12.40;99.90
16964;DHT22;8598;50.508;10.436;2023-08-07T04:19:05;12.40;99.90
16964;DHT22;8598;50.508;10.436;2023-08-07T04:21:33;12.50;99.90
16964;DHT22;8598;50.508;10.436;2023-08-07T04:24:00;12.40;99.90
16964;DHT22;8598;50.508;10.436;2023-08-07T04:26:26;12.40;99.90
16964;DHT22;8598;50.508;10.436;2023-08-07T04:28:54;12.40;99.90
16964;DHT22;8598;50.508;10.436;2023-08-07T04:31:21;12.40;99.90
16964;DHT22;8598;50.508;10.436;2023-08-07T04:33:48;12.40;99.90
16964;DHT22;8598;50.508;10.436;2023-08-07T04:36:14;12.40;99.90
16964;DHT22;8598;50.508;10.436;2023-08-07T04:38:41;12.40;99.90
16964;DHT22;8598;50.508;10.436;2023-08-07T04:41:08;12.40;99.90
16964;DHT22;8598;50.508;10.436;2023-08-07T04:43:34;12.50;99.90
16964;DHT22;8598;50.508;10.436;2023-08-07T04:46:02;12.50;99.90
16964;DHT22;8598;50.508;10.436;2023-08-07T04:48:29;12.50;99.90
16964;DHT22;8598;50.508;10.436;2023-08-07T04:50:56;12.50;99.90
16964;DHT22;8598;50.508;10.436;2023-08-07T04:53:23;12.60;99.90
16964;DHT22;8598;50.508;10.436;2023-08-07T04:55:50;12.50;99.90
16964;DHT22;8598;50.508;10.436;2023-08-07T04:58:17;12.50;99.90
16964;DHT22;8598;50.508;10.436;2023-08-07T05:00:44;12.50;99.90
16964;DHT22;8598;50.508;10.436;2023-08-07T05:03:12;12.60;99.90
16964;DHT22;8598;50.508;10.436;2023-08-07T05:05:40;12.60;99.90
16964;DHT22;8598;50.508;10.436;2023-08-07T05:08:07;12.60;99.90
16964;DHT22;8598;50.508;10.436;2023-08-07T05:10:34;12.60;99.90
16964;DHT22;8598;50.508;10.436;2023-08-07T05:13:00;12.60;99.90
16964;DHT22;8598;50.508;10.436;2023-08-07T05:15:28;12.60;99.90
16964;DHT22;8598;50.508;10.436;2023-08-07T05:17:56;12.60;99.90
16964;DHT22;8598;50.508;10.436;2023-08-07T05:20:24;12.60;99.90
16964;DHT22;8598;50.508;10.436;2023-08-07T05:22:51;12.60;99.90
16964;DHT22;8598;50.508;10.436;2023-08-07T05:25:17;12.60;99.90
16964;DHT22;8598;50.508;10.436;2023-08-07T05:27:45;12.60;99.90
16964;DHT22;8598;50.508;10.436;2023-08-07T05:30:14;12.60;99.90
16964;DHT22;8598;50.508;10.436;2023-08-07T05:32:41;12.60;99.90
16964;DHT22;8598;50.508;10.436;2023-08-07T05:35:08;12.60;99.90
16964;DHT22;8598;50.508;10.436;2023-08-07T05:37:36;12.60;99.90
16964;DHT22;8598;50.508;10.436;2023-08-07T05:40:04;12.70;99.90
16964;DHT22;8598;50.508;10.436;2023-08-07T05:42:31;12.70;99.90
16964;DHT22;8598;50.508;10.436;2023-08-07T05:44:58;12.70;99.90
16964;DHT22;8598;50.508;10.436;2023-08-07T05:47:25;12.70;99.90
16964;DHT22;8598;50.508;10.436;2023-08-07T05:49:51;12.80;99.90
16964;DHT22;8598;50.508;10.436;2023-08-07T05:52:18;12.80;99.90
16964;DHT22;8598;50.508;10.436;2023-08-07T05:54:46;12.80;99.90
16964;DHT22;8598;50.508;10.436;2023-08-07T05:57:13;12.80;99.90
16964;DHT22;8598;50.508;10.436;2023-08-07T05:59:40;12.70;99.90
16964;DHT22;8598;50.508;10.436;2023-08-07T06:02:06;12.80;99.90
16964;DHT22;8598;50.508;10.436;2023-08-07T06:04:36;12.80;99.90
16964;DHT22;8598;50.508;10.436;2023-08-07T06:07:03;12.80;99.90
16964;DHT22;8598;50.508;10.436;2023-08-07T06:09:30;12.80;99.90
16964;DHT22;8598;50.508;10.436;2023-08-07T06:11:58;12.80;99.90
16964;DHT22;8598;50.508;10.436;2023-08-07T06:14:24;12.80;99.90
16964;DHT22;8598;50.508;10.436;2023-08-07T06:16:51;12.80;99.90
16964;DHT22;8598;50.508;10.436;2023-08-07T06:19:18;12.80;99.90
16964;DHT22;8598;50.508;10.436;2023-08-07T06:21:45;12.90;99.90
16964;DHT22;8598;50.508;10.436;2023-08-07T06:24:12;12.90;99.90
16964;DHT22;8598;50.508;10.436;2023-08-07T06:26:39;13.00;99.90
16964;DHT22;8598;50.508;10.436;2023-08-07T06:29:07;13.00;99.90
16964;DHT22;8598;50.508;10.436;2023-08-07T06:31:33;13.00;99.90
16964;DHT22;8598;50.508;10.436;2023-08-07T06:34:00;13.00;99.90
16964;DHT22;8598;50.508;10.436;2023-08-07T06:36:26;13.10;99.90
16964;DHT22;8598;50.508;10.436;2023-08-07T06:38:54;13.10;99.90
16964;DHT22;8598;50.508;10.436;2023-08-07T06:41:20;13.10;99.90
16964;DHT22;8598;50.508;10.436;2023-08-07T06:43:47;13.10;99.90
16964;DHT22;8598;50.508;10.436;2023-08-07T06:46:16;13.10;99.90
16964;DHT22;8598;50.508;10.436;2023-08-07T06:48:43;13.10;99.90
16964;DHT22;8598;50.508;10.436;2023-08-07T06:51:10;13.10;99.90
16964;DHT22;8598;50.508;10.436;2023-08-07T06:53:36;13.00;99.90
16964;DHT22;8598;50.508;10.436;2023-08-07T06:56:03;12.90;99.90
16964;DHT22;8598;50.508;10.436;2023-08-07T06:58:30;12.90;99.90
16964;DHT22;8598;50.508;10.436;2023-08-07T07:00:57;12.90;99.90
16964;DHT22;8598;50.508;10.436;2023-08-07T07:03:25;13.00;99.90
16964;DHT22;8598;50.508;10.436;2023-08-07T07:05:52;13.00;99.90
16964;DHT22;8598;50.508;10.436;2023-08-07T07:08:18;13.10;99.90
16964;DHT22;8598;50.508;10.436;2023-08-07T07:10:45;13.00;99.90
16964;DHT22;8598;50.508;10.436;2023-08-07T07:13:12;13.10;99.90
16964;DHT22;8598;50.508;10.436;2023-08-07T07:15:38;12.90;99.90
16964;DHT22;8598;50.508;10.436;2023-08-07T07:18:05;12.90;99.90
16964;DHT22;8598;50.508;10.436;2023-08-07T07:20:33;13.00;99.90
16964;DHT22;8598;50.508;10.436;2023-08-07T07:23:00;13.00;99.90
16964;DHT22;8598;50.508;10.436;2023-08-07T07:25:26;13.00;99.90
16964;DHT22;8598;50.508;10.436;2023-08-07T07:27:53;13.00;99.90
16964;DHT22;8598;50.508;10.436;2023-08-07T07:30:20;13.00;99.90
16964;DHT22;8598;50.508;10.436;2023-08-07T07:32:50;13.00;99.90
16964;DHT22;8598;50.508;10.436;2023-08-07T07:35:17;13.20;99.90
16964;DHT22;8598;50.508;10.436;2023-08-07T07:37:45;13.20;99.90
16964;DHT22;8598;50.508;10.436;2023-08-07T07:40:12;13.10;99.90
16964;DHT22;8598;50.508;10.436;2023-08-07T07:42:38;13.20;99.90
16964;DHT22;8598;50.508;10.436;2023-08-07T07:45:06;13.10;99.90
16964;DHT22;8598;50.508;10.436;2023-08-07T07:47:32;13.10;99.90
16964;DHT22;8598;50.508;10.436;2023-08-07T07:50:06;13.00;99.90
16964;DHT22;8598;50.508;10.436;2023-08-07T07:52:33;13.10;99.90
16964;DHT22;8598;50.508;10.436;2023-08-07T07:55:02;13.20;99.90
16964;DHT22;8598;50.508;10.436;2023-08-07T07:57:28;13.20;99.90
16964;DHT22;8598;50.508;10.436;2023-08-07T07:59:55;13.30;99.90
16964;DHT22;8598;50.508;10.436;2023-08-07T08:02:22;13.30;99.90
16964;DHT22;8598;50.508;10.436;2023-08-07T08:04:50;13.30;99.90
16964;DHT22;8598;50.508;10.436;2023-08-07T08:07:17;13.50;99.90
16964;DHT22;8598;50.508;10.436;2023-08-07T08:09:43;13.50;99.90
16964;DHT22;8598;50.508;10.436;2023-08-07T08:12:11;13.40;99.90
16964;DHT22;8598;50.508;10.436;2023-08-07T08:14:38;13.40;99.90
16964;DHT22;8598;50.508;10.436;2023-08-07T08:17:05;13.30;99.90
16964;DHT22;8598;50.508;10.436;2023-08-07T08:19:32;13.30;99.90
16964;DHT22;8598;50.508;10.436;2023-08-07T08:21:58;13.30;99.90
16964;DHT22;8598;50.508;10.436;2023-08-07T08:24:25;13.40;99.90
16964;DHT22;8598;50.508;10.436;2023-08-07T08:26:52;13.40;99.90
16964;DHT22;8598;50.508;10.436;2023-08-07T08:29:20;13.60;99.90
16964;DHT22;8598;50.508;10.436;2023-08-07T08:31:46;13.60;99.90
16964;DHT22;8598;50.508;10.436;2023-08-07T08:34:13;13.70;99.90
16964;DHT22;8598;50.508;10.436;2023-08-07T08:36:40;13.80;99.90
16964;DHT22;8598;50.508;10.436;2023-08-07T08:39:06;13.80;99.90
16964;DHT22;8598;50.508;10.436;2023-08-07T08:41:34;13.80;99.90
16964;DHT22;8598;50.508;10.436;2023-08-07T08:44:01;13.90;99.90
16964;DHT22;8598;50.508;10.436;2023-08-07T08:46:31;13.90;99.90
16964;DHT22;8598;50.508;10.436;2023-08-07T08:48:58;13.60;99.90
16964;DHT22;8598;50.508;10.436;2023-08-07T08:51:26;13.60;99.90
16964;DHT22;8598;50.508;10.436;2023-08-07T08:53:53;13.30;99.90
16964;DHT22;8598;50.508;10.436;2023-08-07T08:56:22;13.30;99.90
16964;DHT22;8598;50.508;10.436;2023-08-07T08:58:50;13.50;99.90
16964;DHT22;8598;50.508;10.436;2023-08-07T09:01:17;13.60;99.90
16964;DHT22;8598;50.508;10.436;2023-08-07T09:03:46;13.70;99.90
16964;DHT22;8598;50.508;10.436;2023-08-07T09:06:13;13.60;99.90
16964;DHT22;8598;50.508;10.436;2023-08-07T09:08:41;13.70;99.90
16964;DHT22;8598;50.508;10.436;2023-08-07T09:11:08;13.70;99.90
16964;DHT22;8598;50.508;10.436;2023-08-07T09:13:37;13.90;99.90
16964;DHT22;8598;50.508;10.436;2023-08-07T09:16:05;14.00;99.90
16964;DHT22;8598;50.508;10.436;2023-08-07T09:18:34;14.20;99.90
16964;DHT22;8598;50.508;10.436;2023-08-07T09:21:02;14.40;99.90
16964;DHT22;8598;50.508;10.436;2023-08-07T09:23:29;14.30;99.90
16964;DHT22;8598;50.508;10.436;2023-08-07T09:26:00;14.50;99.90
16964;DHT22;8598;50.508;10.436;2023-08-07T09:28:28;14.60;99.90
16964;DHT22;8598;50.508;10.436;2023-08-07T09:30:55;14.60;99.90
16964;DHT22;8598;50.508;10.436;2023-08-07T09:33:24;14.90;99.90
16964;DHT22;8598;50.508;10.436;2023-08-07T09:35:52;15.10;99.90
16964;DHT22;8598;50.508;10.436;2023-08-07T09:38:22;14.90;99.90
16964;DHT22;8598;50.508;10.436;2023-08-07T09:40:49;14.90;99.90
16964;DHT22;8598;50.508;10.436;2023-08-07T09:43:21;14.70;99.90
16964;DHT22;8598;50.508;10.436;2023-08-07T09:45:48;14.70;99.90
16964;DHT22;8598;50.508;10.436;2023-08-07T09:48:24;14.80;99.90
16964;DHT22;8598;50.508;10.436;2023-08-07T09:50:53;14.90;99.90
16964;DHT22;8598;50.508;10.436;2023-08-07T09:53:26;15.00;99.90
16964;DHT22;8598;50.508;10.436;2023-08-07T09:55:53;15.10;99.90
16964;DHT22;8598;50.508;10.436;2023-08-07T09:58:20;15.20;99.90
16964;DHT22;8598;50.508;10.436;2023-08-07T10:00:47;15.30;99.90
16964;DHT22;8598;50.508;10.436;2023-08-07T10:03:14;15.20;99.90
16964;DHT22;8598;50.508;10.436;2023-08-07T10:05:42;15.00;99.90
16964;DHT22;8598;50.508;10.436;2023-08-07T10:08:10;15.10;99.90
16964;DHT22;8598;50.508;10.436;2023-08-07T10:10:39;15.10;99.90
16964;DHT22;8598;50.508;10.436;2023-08-07T10:13:05;14.80;99.90
16964;DHT22;8598;50.508;10.436;2023-08-07T10:15:33;14.60;99.90
16964;DHT22;8598;50.508;10.436;2023-08-07T10:18:01;14.80;99.90
16964;DHT22;8598;50.508;10.436;2023-08-07T10:20:29;15.00;99.90
16964;DHT22;8598;50.508;10.436;2023-08-07T10:23:00;15.20;99.90
16964;DHT22;8598;50.508;10.436;2023-08-07T10:25:29;15.30;99.90
16964;DHT22;8598;50.508;10.436;2023-08-07T10:27:58;15.00;99.90
16964;DHT22;8598;50.508;10.436;2023-08-07T10:30:26;15.20;99.90
16964;DHT22;8598;50.508;10.436;2023-08-07T10:32:54;15.10;99.90
16964;DHT22;8598;50.508;10.436;2023-08-07T10:35:24;15.00;99.90
16964;DHT22;8598;50.508;10.436;2023-08-07T10:37:52;15.20;99.90
16964;DHT22;8598;50.508;10.436;2023-08-07T10:40:19;15.30;99.90
16964;DHT22;8598;50.508;10.436;2023-08-07T10:42:52;15.40;99.90
16964;DHT22;8598;50.508;10.436;2023-08-07T10:45:23;15.50;99.90
16964;DHT22;8598;50.508;10.436;2023-08-07T10:47:57;15.40;99.90
16964;DHT22;8598;50.508;10.436;2023-08-07T10:50:28;15.20;99.90
16964;DHT22;8598;50.508;10.436;2023-08-07T10:52:55;15.20;99.90
16964;DHT22;8598;50.508;10.436;2023-08-07T10:55:22;14.90;99.90
16964;DHT22;8598;50.508;10.436;2023-08-07T10:57:50;15.10;99.90
16964;DHT22;8598;50.508;10.436;2023-08-07T11:00:17;15.10;99.90
16964;DHT22;8598;50.508;10.436;2023-08-07T11:02:48;15.10;99.90
16964;DHT22;8598;50.508;10.436;2023-08-07T11:05:15;15.00;99.90
16964;DHT22;8598;50.508;10.436;2023-08-07T11:07:44;15.00;99.90
16964;DHT22;8598;50.508;10.436;2023-08-07T11:10:13;14.80;99.90
16964;DHT22;8598;50.508;10.436;2023-08-07T11:12:40;14.80;99.90
16964;DHT22;8598;50.508;10.436;2023-08-07T11:15:12;14.80;99.90
16964;DHT22;8598;50.508;10.436;2023-08-07T11:17:39;14.80;99.90
16964;DHT22;8598;50.508;10.436;2023-08-07T11:20:09;14.90;99.90
16964;DHT22;8598;50.508;10.436;2023-08-07T11:22:38;14.90;99.90
16964;DHT22;8598;50.508;10.436;2023-08-07T11:25:06;14.90;99.90
16964;DHT22;8598;50.508;10.436;2023-08-07T11:27:37;15.00;99.90
16964;DHT22;8598;50.508;10.436;2023-08-07T11:30:05;15.30;99.90
16964;DHT22;8598;50.508;10.436;2023-08-07T11:32:31;15.70;99.90
16964;DHT22;8598;50.508;10.436;2023-08-07T11:34:58;16.00;99.90
16964;DHT22;8598;50.508;10.436;2023-08-07T11:37:26;15.90;99.90
16964;DHT22;8598;50.508;10.436;2023-08-07T11:40:00;16.00;99.90
16964;DHT22;8598;50.508;10.436;2023-08-07T11:42:27;15.70;99.90
16964;DHT22;8598;50.508;10.436;2023-08-07T11:44:54;15.40;99.90
16964;DHT22;8598;50.508;10.436;2023-08-07T11:47:21;15.50;99.90
16964;DHT22;8598;50.508;10.436;2023-08-07T11:49:48;15.50;99.90
16964;DHT22;8598;50.508;10.436;2023-08-07T11:52:14;15.20;99.90
16964;DHT22;8598;50.508;10.436;2023-08-07T11:54:46;15.20;99.90
16964;DHT22;8598;50.508;10.436;2023-08-07T11:57:17;15.20;99.90
16964;DHT22;8598;50.508;10.436;2023-08-07T11:59:49;15.60;99.90
16964;DHT22;8598;50.508;10.436;2023-08-07T12:02:15;15.80;99.90
16964;DHT22;8598;50.508;10.436;2023-08-07T12:04:42;15.70;99.90
16964;DHT22;8598;50.508;10.436;2023-08-07T12:07:09;15.70;99.90
16964;DHT22;8598;50.508;10.436;2023-08-07T12:09:36;15.70;99.90
16964;DHT22;8598;50.508;10.436;2023-08-07T12:12:06;15.50;99.90
16964;DHT22;8598;50.508;10.436;2023-08-07T12:14:33;15.60;99.90
16964;DHT22;8598;50.508;10.436;2023-08-07T12:17:01;15.70;99.90
16964;DHT22;8598;50.508;10.436;2023-08-07T12:19:36;15.80;99.90
16964;DHT22;8598;50.508;10.436;2023-08-07T12:22:06;15.80;99.90
16964;DHT22;8598;50.508;10.436;2023-08-07T12:24:35;15.70;99.90
16964;DHT22;8598;50.508;10.436;2023-08-07T12:27:02;15.70;99.90
16964;DHT22;8598;50.508;10.436;2023-08-07T12:29:30;15.70;99.90
16964;DHT22;8598;50.508;10.436;2023-08-07T12:31:57;15.50;99.90
16964;DHT22;8598;50.508;10.436;2023-08-07T12:34:24;15.40;99.90
16964;DHT22;8598;50.508;10.436;2023-08-07T12:36:51;15.30;99.90
16964;DHT22;8598;50.508;10.436;2023-08-07T12:39:18;15.10;99.90
16964;DHT22;8598;50.508;10.436;2023-08-07T12:41:46;15.00;99.90
16964;DHT22;8598;50.508;10.436;2023-08-07T12:44:13;15.30;99.90
16964;DHT22;8598;50.508;10.436;2023-08-07T12:46:41;15.80;99.90
16964;DHT22;8598;50.508;10.436;2023-08-07T12:49:09;15.80;99.90
16964;DHT22;8598;50.508;10.436;2023-08-07T12:51:35;15.60;99.90
16964;DHT22;8598;50.508;10.436;2023-08-07T12:54:02;15.70;99.90
16964;DHT22;8598;50.508;10.436;2023-08-07T12:56:29;15.90;99.90
16964;DHT22;8598;50.508;10.436;2023-08-07T12:58:56;15.70;99.90
16964;DHT22;8598;50.508;10.436;2023-08-07T13:01:22;16.00;99.90
16964;DHT22;8598;50.508;10.436;2023-08-07T13:03:50;16.50;99.90
16964;DHT22;8598;50.508;10.436;2023-08-07T13:06:17;15.90;99.90
16964;DHT22;8598;50.508;10.436;2023-08-07T13:08:44;16.00;99.90
16964;DHT22;8598;50.508;10.436;2023-08-07T13:11:11;16.10;99.90
16964;DHT22;8598;50.508;10.436;2023-08-07T13:13:38;16.00;99.90
16964;DHT22;8598;50.508;10.436;2023-08-07T13:16:05;15.60;99.90
16964;DHT22;8598;50.508;10.436;2023-08-07T13:18:32;15.90;99.90
16964;DHT22;8598;50.508;10.436;2023-08-07T13:21:00;16.20;99.90
16964;DHT22;8598;50.508;10.436;2023-08-07T13:23:26;16.70;99.90
16964;DHT22;8598;50.508;10.436;2023-08-07T13:25:53;16.80;99.90
16964;DHT22;8598;50.508;10.436;2023-08-07T13:28:21;17.10;99.90
16964;DHT22;8598;50.508;10.436;2023-08-07T13:30:47;16.90;99.90
16964;DHT22;8598;50.508;10.436;2023-08-07T13:33:15;16.60;99.90
16964;DHT22;8598;50.508;10.436;2023-08-07T13:35:42;16.30;99.90
16964;DHT22;8598;50.508;10.436;2023-08-07T13:38:10;16.30;99.90
16964;DHT22;8598;50.508;10.436;2023-08-07T13:40:39;15.70;99.90
16964;DHT22;8598;50.508;10.436;2023-08-07T13:43:06;15.80;99.90
16964;DHT22;8598;50.508;10.436;2023-08-07T13:45:34;16.00;99.90
16964;DHT22;8598;50.508;10.436;2023-08-07T13:48:01;16.40;99.90
16964;DHT22;8598;50.508;10.436;2023-08-07T13:50:29;16.60;99.90
16964;DHT22;8598;50.508;10.436;2023-08-07T13:52:55;16.80;99.90
16964;DHT22;8598;50.508;10.436;2023-08-07T13:55:24;16.90;99.90
16964;DHT22;8598;50.508;10.436;2023-08-07T13:57:50;17.00;99.90
16964;DHT22;8598;50.508;10.436;2023-08-07T14:00:17;17.40;99.90
16964;DHT22;8598;50.508;10.436;2023-08-07T14:02:44;17.20;99.90
16964;DHT22;8598;50.508;10.436;2023-08-07T14:05:11;16.90;99.90
16964;DHT22;8598;50.508;10.436;2023-08-07T14:07:37;16.70;99.90
16964;DHT22;8598;50.508;10.436;2023-08-07T14:10:05;16.30;99.90
16964;DHT22;8598;50.508;10.436;2023-08-07T14:12:33;16.30;99.90
16964;DHT22;8598;50.508;10.436;2023-08-07T14:15:00;15.90;99.90
16964;DHT22;8598;50.508;10.436;2023-08-07T14:17:26;15.80;99.90
16964;DHT22;8598;50.508;10.436;2023-08-07T14:19:53;15.60;99.90
16964;DHT22;8598;50.508;10.436;2023-08-07T14:22:20;15.50;99.90
16964;DHT22;8598;50.508;10.436;2023-08-07T14:24:46;15.40;99.90
16964;DHT22;8598;50.508;10.436;2023-08-07T14:27:13;15.60;99.90
16964;DHT22;8598;50.508;10.436;2023-08-07T14:29:41;15.80;99.90
16964;DHT22;8598;50.508;10.436;2023-08-07T14:32:08;15.90;99.90
16964;DHT22;8598;50.508;10.436;2023-08-07T14:34:34;16.10;99.90
16964;DHT22;8598;50.508;10.436;2023-08-07T14:37:01;16.60;99.90
16964;DHT22;8598;50.508;10.436;2023-08-07T14:39:27;16.60;99.90
16964;DHT22;8598;50.508;10.436;2023-08-07T14:41:54;16.60;99.90
16964;DHT22;8598;50.508;10.436;2023-08-07T14:44:21;16.80;99.90
16964;DHT22;8598;50.508;10.436;2023-08-07T14:46:49;16.60;99.90
16964;DHT22;8598;50.508;10.436;2023-08-07T14:49:16;16.70;99.90
16964;DHT22;8598;50.508;10.436;2023-08-07T14:51:42;16.50;99.90
16964;DHT22;8598;50.508;10.436;2023-08-07T14:54:09;16.20;99.90
16964;DHT22;8598;50.508;10.436;2023-08-07T14:56:36;16.30;99.90
16964;DHT22;8598;50.508;10.436;2023-08-07T14:59:02;16.30;99.90
16964;DHT22;8598;50.508;10.436;2023-08-07T15:01:29;16.60;99.90
16964;DHT22;8598;50.508;10.436;2023-08-07T15:03:57;16.80;99.90
16964;DHT22;8598;50.508;10.436;2023-08-07T15:06:24;16.80;99.90
16964;DHT22;8598;50.508;10.436;2023-08-07T15:08:50;16.80;99.90
16964;DHT22;8598;50.508;10.436;2023-08-07T15:11:17;16.90;99.90
16964;DHT22;8598;50.508;10.436;2023-08-07T15:13:44;16.80;99.90
16964;DHT22;8598;50.508;10.436;2023-08-07T15:16:10;16.70;99.90
16964;DHT22;8598;50.508;10.436;2023-08-07T15:18:37;16.90;99.90
16964;DHT22;8598;50.508;10.436;2023-08-07T15:21:05;16.80;99.90
16964;DHT22;8598;50.508;10.436;2023-08-07T15:23:32;16.90;99.90
16964;DHT22;8598;50.508;10.436;2023-08-07T15:25:58;16.70;99.90
16964;DHT22;8598;50.508;10.436;2023-08-07T15:28:25;16.50;99.90
16964;DHT22;8598;50.508;10.436;2023-08-07T15:30:52;16.70;99.90